Time;durP1;ratioP1;P1;durP2;ratioP2;P2;SDS_P1;SDS_P2;PMS_P1;PMS_P2;Temp;Humidity;BMP_temperature;BMP_pressure;BME280_temperature;BME280_humidity;BME280_pressure;Samples;Min_cycle;Max_cycle;Signal;HPM_P1;HPM_P2
2022/08/21 00:02:02;;;;;;;8.73;3.30;;;;;;;21.77;76.24;97649.41;4425261;32;20102;-78
2022/08/21 00:04:29;;;;;;;6.70;3.22;;;;;;;21.89;75.71;97645.63;4425435;32;20455;-77
2022/08/21 00:06:58;;;;;;;7.15;3.17;;;;;;;22.54;72.87;97645.50;4425666;32;20154;-77
2022/08/21 00:09:25;;;;;;;7.30;3.30;;;;;;;21.99;75.04;97642.12;4425402;32;20163;-77
2022/08/21 00:11:52;;;;;;;6.18;3.08;;;;;;;23.14;70.22;97642.25;4425472;32;20188;-78
2022/08/21 00:14:20;;;;;;;7.18;2.80;;;;;;;21.92;75.16;97637.47;4425250;32;20077;-78
2022/08/21 00:16:47;;;;;;;6.30;2.97;;;;;;;22.55;72.35;97636.69;4425361;32;20158;-78
2022/08/21 00:19:14;;;;;;;6.22;3.00;;;;;;;22.68;71.91;97636.28;4425631;32;20655;-78
2022/08/21 00:21:41;;;;;;;7.07;3.03;;;;;;;22.60;72.03;97633.59;4425083;32;20121;-78
2022/08/21 00:24:10;;;;;;;6.57;2.80;;;;;;;22.55;72.46;97628.78;4425466;32;20081;-78
2022/08/21 00:26:37;;;;;;;6.50;2.97;;;;;;;21.88;75.09;97641.34;4425437;32;20182;-77
2022/08/21 00:29:04;;;;;;;7.07;3.03;;;;;;;22.36;73.04;97642.06;4425312;32;20129;-78
2022/08/21 00:31:31;;;;;;;6.87;3.20;;;;;;;22.76;71.54;97636.38;4425498;32;20133;-77
2022/08/21 00:34:00;;;;;;;6.03;2.95;;;;;;;21.55;76.26;97639.28;4425484;32;20077;-77
2022/08/21 00:36:27;;;;;;;5.50;2.70;;;;;;;22.56;72.54;97627.81;4425236;32;20493;-78
2022/08/21 00:38:55;;;;;;;6.15;3.00;;;;;;;22.08;74.33;97630.75;4425444;32;20098;-78
2022/08/21 00:41:23;;;;;;;6.85;3.08;;;;;;;21.49;77.79;97630.19;4411788;32;20512;-78
2022/08/21 00:44:06;;;;;;;11.18;3.08;;;;;;;22.38;73.57;97630.44;4412869;32;20081;-78
2022/08/21 00:46:33;;;;;;;6.43;3.03;;;;;;;22.80;71.75;97630.63;4425326;32;20081;-77
2022/08/21 00:49:00;;;;;;;7.60;3.50;;;;;;;22.61;72.57;97622.91;4425412;32;20101;-78
2022/08/21 00:51:39;;;;;;;7.37;2.97;;;;;;;22.49;73.22;97618.84;4425038;32;20160;-78
2022/08/21 00:54:07;;;;;;;5.50;2.70;;;;;;;22.30;73.19;97616.37;4411524;32;20574;-78
2022/08/21 00:56:44;;;;;;;7.10;3.05;;;;;;;21.89;75.53;97608.84;4412468;32;20532;-78
2022/08/21 00:59:11;;;;;;;6.25;3.00;;;;;;;21.67;76.52;97617.13;4425292;32;20149;-78
2022/08/21 01:01:38;;;;;;;6.62;2.60;;;;;;;21.90;75.38;97612.28;4425175;32;20082;-77
2022/08/21 01:04:05;;;;;;;4.72;2.30;;;;;;;21.78;75.59;97609.03;4424978;32;20077;-77
2022/08/21 01:06:32;;;;;;;14.23;3.03;;;;;;;21.43;77.12;97603.69;4425385;32;20110;-77
2022/08/21 01:08:59;;;;;;;6.40;2.60;;;;;;;21.20;77.83;97603.19;4425231;32;20145;-78
2022/08/21 01:11:26;;;;;;;5.10;2.28;;;;;;;20.98;79.49;97615.66;4410998;32;20165;-77
2022/08/21 01:13:54;;;;;;;5.32;2.08;;;;;;;21.27;77.94;97609.56;4425011;32;20077;-77
2022/08/21 01:16:22;;;;;;;5.20;2.30;;;;;;;21.99;74.88;97587.78;4425174;32;20097;-78
2022/08/21 01:18:50;;;;;;;4.53;2.58;;;;;;;21.50;76.53;97586.41;4424770;32;20138;-78
2022/08/21 01:21:23;;;;;;;4.70;2.08;;;;;;;21.07;79.22;97593.00;4425075;32;20149;-78
2022/08/21 01:23:54;;;;;;;;;;;;;;;21.36;77.97;97590.31;4425203;32;20144;-78
2022/08/21 01:26:25;;;;;;;4.43;2.08;;;;;;;21.24;77.92;97586.19;4424730;32;20032;-78
2022/08/21 01:29:15;;;;;;;5.18;2.30;;;;;;;20.62;80.68;97584.94;4423797;32;20120;-78
2022/08/21 01:31:42;;;;;;;4.75;2.15;;;;;;;21.12;79.35;97585.53;4424607;32;20268;-78
2022/08/21 01:34:10;;;;;;;4.28;1.83;;;;;;;21.49;77.30;97584.75;4424803;32;20157;-78
2022/08/21 01:36:37;;;;;;;5.37;2.00;;;;;;;20.99;78.80;97577.16;4424928;32;20108;-78
2022/08/21 01:39:05;;;;;;;5.32;2.03;;;;;;;21.33;77.14;97577.47;4424534;32;20107;-78
2022/08/21 01:41:32;;;;;;;4.95;1.95;;;;;;;22.03;74.27;97577.81;4424889;32;20582;-77
2022/08/21 01:44:01;;;;;;;5.75;2.12;;;;;;;21.35;76.62;97581.59;4410792;32;20090;-77
2022/08/21 01:46:29;;;;;;;4.30;2.03;;;;;;;21.83;74.79;97572.69;4424399;32;20116;-78
2022/08/21 01:48:56;;;;;;;4.65;2.05;;;;;;;21.40;75.25;97569.87;4424790;32;20110;-78
2022/08/21 01:51:23;;;;;;;4.55;2.20;;;;;;;21.13;77.58;97578.47;4424800;32;20178;-78
2022/08/21 01:53:50;;;;;;;5.07;2.20;;;;;;;20.83;79.61;97571.66;4424100;32;20437;-78
2022/08/21 01:56:17;;;;;;;7.00;2.50;;;;;;;21.23;77.54;97571.41;4424705;32;20372;-77
2022/08/21 01:58:46;;;;;;;5.87;2.08;;;;;;;21.69;75.48;97570.53;4410903;32;20165;-78
2022/08/21 02:01:13;;;;;;;4.32;2.00;;;;;;;21.30;77.02;97567.28;4424181;32;20117;-78
2022/08/21 02:03:41;;;;;;;4.45;2.05;;;;;;;21.40;76.76;97564.63;4424364;32;20484;-78
2022/08/21 02:06:14;;;;;;;6.95;2.50;;;;;;;20.77;79.59;97555.53;4424389;32;20116;-78
2022/08/21 02:08:41;;;;;;;5.50;2.03;;;;;;;21.48;76.14;97567.31;4424364;32;20094;-78
2022/08/21 02:11:08;;;;;;;5.65;2.37;;;;;;;20.90;79.04;97565.72;4424440;32;20165;-78
2022/08/21 02:13:35;;;;;;;6.15;2.62;;;;;;;21.46;76.60;97561.41;4423975;32;20411;-78
2022/08/21 02:16:02;;;;;;;5.82;2.50;;;;;;;22.01;74.10;97556.97;4424414;32;20449;-78
2022/08/21 02:18:29;;;;;;;5.82;2.37;;;;;;;21.44;76.79;97564.19;4424314;32;20149;-78
2022/08/21 02:20:56;;;;;;;7.00;2.53;;;;;;;22.10;73.43;97558.69;4423994;32;20137;-78
2022/08/21 02:23:24;;;;;;;5.72;2.37;;;;;;;21.76;74.63;97571.59;4424169;32;20143;-78
2022/08/21 02:26:01;;;;;;;6.75;2.67;;;;;;;22.05;73.71;97565.34;4424088;32;20117;-78
2022/08/21 02:28:28;;;;;;;8.43;2.70;;;;;;;21.70;74.77;97569.59;4423586;32;20111;-78
2022/08/21 02:30:56;;;;;;;6.03;2.30;;;;;;;21.47;76.00;97565.69;4424151;32;20368;-78
2022/08/21 02:33:23;;;;;;;6.95;2.47;;;;;;;22.53;71.83;97565.81;4423939;32;20121;-78
2022/08/21 02:35:51;;;;;;;5.55;2.37;;;;;;;21.53;75.56;97570.34;4423826;32;20145;-78
2022/08/21 02:38:24;;;;;;;5.05;2.40;;;;;;;21.37;75.97;97570.97;4424042;32;20101;-78
2022/08/21 02:40:52;;;;;;;4.47;2.12;;;;;;;22.29;72.63;97568.25;4425335;32;20176;-78
2022/08/21 02:43:21;;;;;;;5.45;2.42;;;;;;;21.75;74.65;97562.09;4425775;32;20139;-78
2022/08/21 02:45:49;;;;;;;6.05;2.50;;;;;;;21.17;77.04;97551.00;4425977;32;20473;-78
2022/08/21 02:48:19;;;;;;;6.32;2.85;;;;;;;21.86;73.74;97548.75;4426240;32;20534;-78
2022/08/21 02:50:48;;;;;;;4.75;2.30;;;;;;;21.67;74.30;97548.84;4425814;32;20155;-78
2022/08/21 02:53:16;;;;;;;5.18;2.40;;;;;;;22.01;73.20;97546.44;4426090;32;20151;-78
2022/08/21 02:55:45;;;;;;;5.80;2.78;;;;;;;21.65;74.93;97559.50;4425583;32;20116;-78
2022/08/21 02:58:13;;;;;;;6.28;2.53;;;;;;;21.91;73.38;97546.53;4426193;32;20112;-78
2022/08/21 03:00:41;;;;;;;6.40;2.53;;;;;;;20.46;79.91;97551.44;4426121;32;20090;-78
2022/08/21 03:03:08;;;;;;;5.65;2.62;;;;;;;21.54;76.03;97545.75;4425642;32;20156;-78
2022/08/21 03:05:37;;;;;;;5.30;2.60;;;;;;;21.62;75.05;97557.19;4425800;32;20118;-78
2022/08/21 03:08:10;;;;;;;4.40;2.08;;;;;;;21.85;73.48;97548.91;4426062;32;20105;-78
2022/08/21 03:10:39;;;;;;;5.37;2.37;;;;;;;21.57;74.01;97546.28;4425851;32;20101;-78
2022/08/21 03:13:07;;;;;;;7.40;2.53;;;;;;;21.29;75.49;97539.41;4425934;32;20105;-78
2022/08/21 03:15:34;;;;;;;5.35;2.30;;;;;;;22.06;72.64;97538.13;4425734;32;20161;-78
2022/08/21 03:18:04;;;;;;;5.05;2.58;;;;;;;21.14;75.93;97540.78;4425763;32;20146;-78
2022/08/21 03:20:32;;;;;;;6.12;2.60;;;;;;;21.09;76.66;97541.22;4425983;32;20103;-78
2022/08/21 03:23:00;;;;;;;5.10;2.30;;;;;;;21.61;74.47;97545.03;4425801;32;20104;-78
2022/08/21 03:25:31;;;;;;;6.70;2.80;;;;;;;21.63;73.85;97553.59;4425425;32;20433;-78
2022/08/21 03:28:09;;;;;;;8.25;2.62;;;;;;;21.13;76.82;97542.59;4425759;32;20565;-78
2022/08/21 03:30:40;;;;;;;6.00;2.42;;;;;;;20.52;79.53;97543.00;4426026;32;20175;-78
2022/08/21 03:33:07;;;;;;;5.28;2.55;;;;;;;21.00;77.54;97550.78;4425826;32;20073;-78
2022/08/21 03:35:37;;;;;;;5.37;2.42;;;;;;;21.59;74.66;97548.78;4425741;32;20173;-78
2022/08/21 03:38:04;;;;;;;6.25;2.28;;;;;;;21.02;76.96;97535.72;4425633;32;20156;-78
2022/08/21 03:40:31;;;;;;;6.35;2.85;;;;;;;21.00;76.85;97540.28;4425714;32;20616;-78
2022/08/21 03:42:58;;;;;;;6.32;2.35;;;;;;;20.37;79.92;97539.13;4425787;32;20120;-78
2022/08/21 03:45:27;;;;;;;5.20;2.37;;;;;;;20.42;80.20;97536.94;4425288;32;20165;-78
2022/08/21 03:47:59;;;;;;;6.68;2.78;;;;;;;20.45;79.94;97534.06;4425780;32;20150;-78
2022/08/21 03:50:30;;;;;;;5.12;2.40;;;;;;;20.34;80.41;97535.00;4425795;32;20094;-78
2022/08/21 03:52:57;;;;;;;5.78;2.37;;;;;;;19.65;84.71;97542.91;4424705;32;20112;-78
2022/08/21 03:55:25;;;;;;;6.45;2.20;;;;;;;20.24;80.61;97539.41;4425565;32;20433;-78
2022/08/21 03:57:53;;;;;;;6.53;2.80;;;;;;;20.13;81.94;97550.03;4425733;32;20164;-78
2022/08/21 04:00:20;;;;;;;5.72;2.40;;;;;;;20.37;79.87;97542.56;4425411;32;20094;-78
2022/08/21 04:02:48;;;;;;;6.15;2.80;;;;;;;20.47;79.96;97540.00;4411918;32;20154;-78
2022/08/21 04:05:29;;;;;;;5.10;2.20;;;;;;;20.58;79.21;97547.69;4425352;32;20113;-78
2022/08/21 04:07:58;;;;;;;5.80;2.33;;;;;;;20.28;81.63;97542.56;4425404;32;20125;-78
2022/08/21 04:10:26;;;;;;;5.80;2.40;;;;;;;20.83;78.23;97540.19;4425652;32;20145;-78
2022/08/21 04:12:53;;;;;;;5.55;2.33;;;;;;;20.28;80.97;97545.19;4411503;32;20149;-78
2022/08/21 04:15:21;;;;;;;5.55;2.37;;;;;;;20.21;80.51;97548.38;4425551;32;20492;-78
2022/08/21 04:17:49;;;;;;;5.30;2.28;;;;;;;20.16;81.30;97545.34;4425713;32;20116;-78
2022/08/21 04:20:17;;;;;;;4.25;2.05;;;;;;;19.72;83.21;97538.00;4425024;32;20176;-78
2022/08/21 04:22:45;;;;;;;6.25;2.22;;;;;;;20.09;81.99;97544.22;4425422;32;20082;-78
2022/08/21 04:25:13;;;;;;;5.50;2.20;;;;;;;19.91;82.98;97544.09;4425360;32;20095;-78
2022/08/21 04:27:41;;;;;;;5.53;2.45;;;;;;;20.16;81.79;97544.50;4425058;32;20168;-78
2022/08/21 04:30:09;;;;;;;5.82;2.33;;;;;;;20.55;80.17;97553.22;4425358;32;20156;-78
2022/08/21 04:32:37;;;;;;;6.18;2.37;;;;;;;20.80;78.70;97552.63;4411545;32;20121;-78
2022/08/21 04:35:07;;;;;;;5.78;2.40;;;;;;;20.69;79.21;97559.81;4425033;32;20145;-78
2022/08/21 04:37:34;;;;;;;6.32;2.40;;;;;;;20.12;81.65;97559.69;4425512;32;20433;-78
2022/08/21 04:40:09;;;;;;;7.35;2.70;;;;;;;20.64;79.50;97557.62;4425528;32;20086;-78
2022/08/21 04:42:46;;;;;;;6.32;2.53;;;;;;;21.10;76.87;97558.62;4425125;32;20082;-78
2022/08/21 04:45:23;;;;;;;4.45;2.20;;;;;;;20.80;78.70;97568.34;4425487;32;20201;-78
2022/08/21 04:47:51;;;;;;;;;;;;;;;20.30;80.57;97567.66;4425718;32;20490;-78
2022/08/21 04:50:20;;;;;;;6.05;2.53;;;;;;;20.52;80.20;97563.97;4425378;32;19968;-78
2022/08/21 04:52:47;;;;;;;7.90;2.60;;;;;;;20.70;79.19;97562.28;4411498;32;20153;-78
2022/08/21 04:55:16;;;;;;;7.18;2.70;;;;;;;21.18;77.42;97576.28;4424754;32;20113;-78
2022/08/21 04:57:43;;;;;;;6.57;2.60;;;;;;;20.37;79.96;97570.56;4425361;32;20575;-78
2022/08/21 05:00:18;;;;;;;5.45;2.58;;;;;;;20.69;79.36;97578.16;4425382;32;20120;-78
2022/08/21 05:02:52;;;;;;;5.65;2.70;;;;;;;19.75;83.18;97572.56;4424906;32;20089;-78
2022/08/21 05:05:19;;;;;;;4.87;2.30;;;;;;;20.26;81.32;97568.91;4411998;32;20109;-78
2022/08/21 05:07:46;;;;;;;5.30;2.30;;;;;;;20.35;81.08;97568.09;4425138;32;20134;-78
2022/08/21 05:10:15;;;;;;;5.65;2.60;;;;;;;20.54;79.79;97575.16;4424804;32;20109;-78
2022/08/21 05:12:42;;;;;;;6.12;2.55;;;;;;;21.00;78.73;97584.03;4425061;32;20099;-78
2022/08/21 05:15:11;;;;;;;5.90;2.33;;;;;;;20.43;80.62;97575.31;4411195;32;20114;-78
2022/08/21 05:17:40;;;;;;;6.45;2.62;;;;;;;20.62;79.76;97571.81;4424846;32;20161;-78
2022/08/21 05:20:09;;;;;;;6.37;2.50;;;;;;;19.96;82.93;97580.31;4425074;32;20134;-78
2022/08/21 05:22:36;;;;;;;7.57;2.20;;;;;;;20.75;80.11;97590.72;4424974;32;20081;-78
2022/08/21 05:25:05;;;;;;;6.40;2.85;;;;;;;20.80;79.26;97584.09;4424616;32;20098;-78
2022/08/21 05:27:37;;;;;;;8.43;2.67;;;;;;;21.62;75.64;97590.50;4424728;32;20101;-78
2022/08/21 05:30:07;;;;;;;5.55;2.40;;;;;;;22.53;72.18;97596.53;4424667;32;20105;-78
2022/08/21 05:32:35;;;;;;;5.60;2.50;;;;;;;22.39;72.25;97600.53;4424818;32;20454;-78
2022/08/21 05:35:04;;;;;;;5.70;2.50;;;;;;;22.55;71.74;97604.31;4424709;32;20253;-78
2022/08/21 05:37:31;;;;;;;6.95;2.42;;;;;;;22.39;72.01;97603.16;4424657;32;20119;-78
2022/08/21 05:39:59;;;;;;;5.57;2.40;;;;;;;22.79;69.97;97601.88;4424894;32;20452;-78
2022/08/21 05:42:46;;;;;;;6.45;2.30;;;;;;;22.09;73.15;97596.47;4425042;32;20081;-78
2022/08/21 05:45:25;;;;;;;4.75;2.00;;;;;;;22.85;70.82;97600.44;4424235;32;20156;-78
2022/08/21 05:48:18;;;;;;;4.57;2.12;;;;;;;23.25;68.39;97597.25;4424636;32;20169;-78
2022/08/21 05:50:46;;;;;;;4.57;2.10;;;;;;;23.76;67.25;97591.13;4411082;32;20145;-78
2022/08/21 05:53:15;;;;;;;4.37;1.90;;;;;;;24.23;64.60;97580.84;4424053;32;20093;-78
2022/08/21 05:55:43;;;;;;;3.30;1.80;;;;;;;23.21;67.95;97590.66;4424567;32;20163;-78
2022/08/21 05:58:17;;;;;;;5.03;2.62;;;;;;;23.58;67.44;97591.19;4424440;32;20498;-78
2022/08/21 06:00:47;;;;;;;4.22;2.05;;;;;;;24.14;64.75;97573.12;4410984;32;20086;-78
2022/08/21 06:03:20;;;;;;;5.10;2.28;;;;;;;23.19;67.89;97576.84;4424435;32;20085;-78
2022/08/21 06:05:47;;;;;;;4.20;1.95;;;;;;;23.14;68.77;97577.28;4424191;32;20141;-78
2022/08/21 06:08:16;;;;;;;4.97;2.20;;;;;;;23.45;67.89;97582.88;4424395;32;20133;-78
2022/08/21 06:10:44;;;;;;;4.60;2.10;;;;;;;22.75;70.78;97569.75;4424396;32;20090;-78
2022/08/21 06:13:11;;;;;;;5.70;2.30;;;;;;;22.78;70.66;97558.97;4423910;32;20120;-78
2022/08/21 06:15:39;;;;;;;5.00;2.08;;;;;;;23.13;69.95;97580.91;4425055;32;20475;-78
2022/08/21 06:18:06;;;;;;;5.30;2.17;;;;;;;23.42;68.59;97574.50;4426522;32;20149;-78
2022/08/21 06:20:34;;;;;;;5.28;2.20;;;;;;;22.77;71.20;97572.25;4426091;32;20153;-78
2022/08/21 06:23:01;;;;;;;5.05;2.33;;;;;;;23.28;69.68;97576.69;4426290;32;20074;-78
2022/08/21 06:25:28;;;;;;;3.83;2.10;;;;;;;22.76;70.89;97581.97;4426173;32;20113;-78
2022/08/21 06:28:06;;;;;;;4.68;2.30;;;;;;;23.08;69.66;97575.31;4424017;32;20136;-78
2022/08/21 06:30:34;;;;;;;6.20;2.47;;;;;;;22.91;70.56;97574.34;4426428;32;20081;-78
2022/08/21 06:33:02;;;;;;;4.40;2.20;;;;;;;23.34;68.92;97584.00;4426215;32;20163;-78
2022/08/21 06:35:29;;;;;;;4.97;1.80;;;;;;;23.92;66.69;97583.25;4425694;32;20448;-78
2022/08/21 06:37:57;;;;;;;5.25;1.90;;;;;;;23.40;68.38;97590.44;4426316;32;20119;-78
2022/08/21 06:40:25;;;;;;;4.35;1.92;;;;;;;22.71;71.29;97586.84;4426019;32;20105;-78
2022/08/21 06:42:52;;;;;;;3.97;2.05;;;;;;;24.17;66.14;97591.22;4426097;32;20111;-78
2022/08/21 06:45:20;;;;;;;4.97;2.17;;;;;;;24.17;65.98;97593.88;4426040;32;20098;-78
2022/08/21 06:47:47;;;;;;;5.12;2.00;;;;;;;24.03;65.60;97594.47;4412067;32;20169;-78
2022/08/21 06:50:14;;;;;;;4.45;1.90;;;;;;;24.04;66.19;97596.97;4426174;32;20153;-78
2022/08/21 06:52:41;;;;;;;3.85;1.85;;;;;;;24.09;65.98;97584.13;4425994;32;20161;-78
2022/08/21 06:55:09;;;;;;;6.22;2.00;;;;;;;23.86;65.63;97604.97;4425663;32;20116;-78
2022/08/21 06:57:36;;;;;;;5.65;2.20;;;;;;;24.46;64.83;97596.09;4426211;32;20108;-78
2022/08/21 07:00:05;;;;;;;3.87;2.15;;;;;;;23.83;66.60;97596.59;4426117;32;20139;-78
2022/08/21 07:02:36;;;;;;;4.35;1.58;;;;;;;24.26;66.18;97589.44;4425626;32;20073;-78
2022/08/21 07:05:07;;;;;;;3.75;1.73;;;;;;;24.83;62.91;97574.47;4426115;32;20106;-78
2022/08/21 07:07:45;;;;;;;2.58;1.58;;;;;;;24.95;62.31;97588.16;4426094;32;20126;-78
2022/08/21 07:10:12;;;;;;;3.95;1.90;;;;;;;24.66;63.34;97591.28;4425750;32;20102;-78
2022/08/21 07:12:54;;;;;;;2.95;1.70;;;;;;;24.26;64.81;97585.00;4426063;32;20081;-78
2022/08/21 07:15:29;;;;;;;;;;;;;;;25.02;62.58;97583.88;4425942;32;20110;-78
2022/08/21 07:17:57;;;;;;;3.03;1.70;;;;;;;23.72;66.40;97591.59;4426094;32;20395;-78
2022/08/21 07:20:25;;;;;;;2.72;1.58;;;;;;;24.65;63.87;97576.47;4426102;32;20365;-78
2022/08/21 07:22:53;;;;;;;4.20;1.65;;;;;;;25.11;61.47;97582.88;4425463;32;20148;-78
2022/08/21 07:25:19;;;;;;;2.97;1.80;;;;;;;;;;4411928;32;20473;-78
2022/08/21 07:27:46;;;;;;;5.03;2.10;;;;;;;25.24;61.37;97592.91;4424689;32;20491;-78
2022/08/21 07:30:13;;;;;;;3.62;1.67;;;;;;;25.10;61.58;97599.72;4425653;32;20111;-78
2022/08/21 07:32:41;;;;;;;3.85;1.83;;;;;;;24.24;64.27;97594.84;4425826;32;20392;-78
2022/08/21 07:35:08;;;;;;;3.10;1.60;;;;;;;23.75;66.18;97610.53;4425844;32;20101;-78
2022/08/21 07:37:35;;;;;;;2.97;1.65;;;;;;;24.39;64.23;97598.53;4425664;32;20102;-78
2022/08/21 07:40:03;;;;;;;2.97;1.70;;;;;;;24.13;64.15;97595.97;4425838;32;20169;-78
2022/08/21 07:42:31;;;;;;;2.58;1.58;;;;;;;23.60;66.07;97591.87;4425778;32;20446;-78
2022/08/21 07:44:58;;;;;;;3.80;1.80;;;;;;;24.31;64.69;97590.63;4411650;32;20131;-78
2022/08/21 07:47:25;;;;;;;2.65;1.60;;;;;;;24.93;61.64;97598.06;4425714;32;20113;-78
2022/08/21 07:50:09;;;;;;;3.58;1.62;;;;;;;24.36;64.07;97585.69;4425710;32;20472;-78
2022/08/21 07:52:36;;;;;;;3.33;1.48;;;;;;;24.97;61.88;97592.25;4425210;32;20124;-78
2022/08/21 07:55:04;;;;;;;3.25;1.60;;;;;;;25.42;59.59;97588.25;4425621;32;20112;-78
2022/08/21 07:57:32;;;;;;;3.08;1.48;;;;;;;24.82;61.37;97588.66;4425402;32;20498;-78
2022/08/21 07:59:59;;;;;;;2.60;1.55;;;;;;;24.36;63.77;97585.69;4425747;32;20074;-78
2022/08/21 08:02:29;;;;;;;2.55;1.60;;;;;;;24.91;62.20;97582.38;4425631;32;20102;-78
2022/08/21 08:05:04;;;;;;;3.15;1.65;;;;;;;25.34;60.46;97583.00;4425180;32;20101;-78
2022/08/21 08:07:31;;;;;;;3.87;1.45;;;;;;;24.55;62.22;97557.34;4425629;32;20093;-78
2022/08/21 08:09:58;;;;;;;3.10;1.55;;;;;;;24.55;62.97;97562.63;4425732;32;20484;-78
2022/08/21 08:12:29;;;;;;;1.77;1.25;;;;;;;24.38;64.15;97564.44;4425163;32;20078;-78
2022/08/21 08:14:57;;;;;;;2.40;1.55;;;;;;;25.20;60.50;97566.03;4425544;32;20474;-78
2022/08/21 08:17:25;;;;;;;2.50;1.55;;;;;;;24.43;62.90;97548.94;4425676;32;20098;-78
2022/08/21 08:19:53;;;;;;;3.03;1.73;;;;;;;24.32;63.34;97562.44;4425231;32;20149;-78
2022/08/21 08:22:23;;;;;;;4.18;1.50;;;;;;;25.16;61.13;97563.91;4425423;32;20127;-78
2022/08/21 08:24:51;;;;;;;2.95;1.40;;;;;;;25.39;59.32;97568.28;4425504;32;20120;-78
2022/08/21 08:27:19;;;;;;;2.83;1.58;;;;;;;26.00;57.09;97559.78;4425156;32;20110;-78
2022/08/21 08:29:46;;;;;;;3.62;2.08;;;;;;;25.78;57.96;97561.37;4425292;32;20156;-78
2022/08/21 08:32:14;;;;;;;2.85;1.20;;;;;;;26.01;57.03;97553.50;4425405;32;20090;-78
2022/08/21 08:34:41;;;;;;;3.95;1.80;;;;;;;26.11;57.01;97548.81;4425094;32;20133;-78
2022/08/21 08:37:09;;;;;;;4.03;1.30;;;;;;;26.55;56.27;97549.00;4425473;32;20089;-78
2022/08/21 08:39:37;;;;;;;2.08;1.40;;;;;;;26.14;57.02;97554.56;4424586;32;20108;-78
2022/08/21 08:42:13;;;;;;;2.12;1.40;;;;;;;25.77;57.35;97536.78;4425344;32;20078;-78
2022/08/21 08:45:06;;;;;;;2.55;1.50;;;;;;;26.37;56.25;97541.38;4435119;32;20144;-78
2022/08/21 08:47:37;;;;;;;4.95;1.50;;;;;;;26.42;55.74;97554.06;4411302;32;20127;-78
2022/08/21 08:50:17;;;;;;;2.72;1.67;;;;;;;26.85;55.00;97552.53;4436936;32;20094;-78
2022/08/21 08:53:14;;;;;;;2.45;1.30;;;;;;;26.72;55.10;97553.16;4425457;32;20659;-78
2022/08/21 08:55:43;;;;;;;1.67;1.10;;;;;;;27.55;51.43;97554.78;4398194;32;20102;-78
2022/08/21 08:58:20;;;;;;;2.03;1.08;;;;;;;27.00;53.12;97555.19;4425276;32;20153;-78
2022/08/21 09:00:49;;;;;;;1.17;1.00;;;;;;;25.99;56.07;97548.38;4411328;32;20589;-78
2022/08/21 09:03:16;;;;;;;2.28;1.30;;;;;;;26.63;54.89;97548.94;4424954;32;20108;-78
2022/08/21 09:06:11;;;;;;;1.92;1.10;;;;;;;26.17;56.36;97554.22;4425040;32;20146;-78
2022/08/21 09:08:54;;;;;;;1.83;1.20;;;;;;;26.57;54.71;97552.28;4424906;32;20107;-78
2022/08/21 09:11:28;;;;;;;2.45;0.90;;;;;;;26.12;55.54;97555.72;4425297;32;20152;-78
2022/08/21 09:14:19;;;;;;;2.60;1.30;;;;;;;25.21;58.54;97558.94;4425093;32;20417;-78
2022/08/21 09:17:04;;;;;;;1.67;1.12;;;;;;;26.01;55.91;97559.59;4424821;32;20120;-78
2022/08/21 09:19:50;;;;;;;1.30;1.10;;;;;;;25.87;56.89;97561.16;4411450;32;20105;-78
2022/08/21 09:22:43;;;;;;;2.00;1.30;;;;;;;26.23;55.45;97552.69;4424660;32;20806;-78
2022/08/21 09:25:22;;;;;;;2.28;1.20;;;;;;;25.34;59.03;97552.13;4398740;32;20082;-78
2022/08/21 09:27:50;;;;;;;2.50;1.17;;;;;;;26.08;56.43;97535.94;4411201;32;20090;-78
2022/08/21 09:30:19;;;;;;;3.03;1.10;;;;;;;27.41;51.90;97545.00;4424565;32;20101;-78
2022/08/21 09:32:46;;;;;;;1.85;1.10;;;;;;;27.29;52.31;97538.53;4424792;32;20152;-78
2022/08/21 09:35:17;;;;;;;2.08;1.10;;;;;;;26.68;52.92;97540.44;4424847;32;20086;-78
2022/08/21 09:37:50;;;;;;;1.87;1.12;;;;;;;27.39;52.91;97536.44;4424575;32;20141;-78
2022/08/21 09:40:35;;;;;;;1.27;1.00;;;;;;;27.18;52.93;97542.47;4424952;32;20173;-78
2022/08/21 09:43:13;;;;;;;1.70;1.17;;;;;;;26.83;53.52;97533.38;4424547;32;20108;-78
2022/08/21 09:45:41;;;;;;;2.90;1.15;;;;;;;26.85;53.51;97541.13;4424848;32;20093;-78
2022/08/21 09:48:13;;;;;;;1.77;1.10;;;;;;;26.37;55.40;97533.47;4410932;32;20163;-78
2022/08/21 09:50:41;;;;;;;3.05;1.20;;;;;;;27.26;53.11;97529.13;4423503;32;20433;-78
2022/08/21 09:53:27;;;;;;;2.33;1.20;;;;;;;27.10;52.71;97529.31;4424587;32;20165;-78
2022/08/21 09:58:51;;;;;;;2.37;1.45;;;;;;;26.94;52.07;97542.69;4424330;32;20094;-78
2022/08/21 10:01:21;;;;;;;1.80;1.27;;;;;;;26.43;54.07;97532.72;4410915;32;20166;-78
2022/08/21 10:03:49;;;;;;;3.15;1.37;;;;;;;27.28;52.38;97531.59;4424184;32;20572;-78
2022/08/21 10:06:27;;;;;;;2.53;1.35;;;;;;;26.38;53.84;97536.91;4410761;32;20156;-78
2022/08/21 10:09:10;;;;;;;2.50;1.42;;;;;;;26.73;54.07;97543.38;4424561;32;20094;-78
2022/08/21 10:12:12;;;;;;;2.17;1.30;;;;;;;27.79;50.78;97542.25;4424267;32;20093;-78
2022/08/21 10:14:50;;;;;;;2.37;1.30;;;;;;;27.19;52.04;97535.34;4424498;32;20093;-78
2022/08/21 10:18:05;;;;;;;5.10;1.30;;;;;;;27.09;52.03;97535.59;4410663;32;20503;-78
2022/08/21 10:20:37;;;;;;;4.00;1.50;;;;;;;27.49;51.59;97542.28;4399869;32;20688;-78
2022/08/21 10:23:37;;;;;;;2.75;1.45;;;;;;;27.52;50.81;97535.78;4410220;32;20122;-78
2022/08/21 10:26:29;;;;;;;3.22;1.42;;;;;;;28.04;49.55;97529.47;4423813;32;20152;-78
2022/08/21 10:29:28;;;;;;;2.05;1.35;;;;;;;27.49;51.13;97539.63;4423911;32;20634;-77
2022/08/21 10:32:24;;;;;;;1.75;1.30;;;;;;;28.77;46.98;97528.31;4435409;32;20140;-78
2022/08/21 10:35:17;;;;;;;3.00;1.30;;;;;;;28.58;47.40;97523.66;4410478;32;20102;-78
2022/08/21 10:38:20;;;;;;;1.77;1.20;;;;;;;27.93;48.31;97526.31;4424076;32;20436;-78
2022/08/21 10:41:22;;;;;;;2.22;1.33;;;;;;;27.82;48.81;97531.28;4423813;32;20077;-78
2022/08/21 10:43:53;;;;;;;2.95;1.80;;;;;;;28.62;47.94;97535.56;4423834;32;20102;-78
2022/08/21 10:46:20;;;;;;;3.03;1.50;;;;;;;28.20;48.05;97527.41;4423737;32;20098;-78
2022/08/21 10:48:55;;;;;;;1.40;1.02;;;;;;;27.47;51.37;97524.91;4424054;32;20196;-77
2022/08/21 10:51:37;;;;;;;3.50;1.50;;;;;;;27.63;49.54;97524.69;4423955;32;20073;-78
2022/08/21 10:54:18;;;;;;;2.62;1.42;;;;;;;28.74;47.50;97534.03;4423316;32;20111;-78
2022/08/21 10:56:51;;;;;;;2.28;1.30;;;;;;;27.72;49.78;97533.41;4410626;32;20482;-78
2022/08/21 10:59:22;;;;;;;2.62;1.12;;;;;;;28.65;46.99;97505.97;4423803;32;20089;-78
2022/08/21 11:02:14;;;;;;;1.58;1.20;;;;;;;28.07;48.26;97521.12;4424847;32;20508;-77
2022/08/21 11:05:00;;;;;;;2.15;1.30;;;;;;;28.14;48.78;97522.84;4422304;32;20112;-77
2022/08/21 11:07:31;;;;;;;2.10;1.27;;;;;;;27.06;51.01;97520.91;4425779;32;20121;-78
2022/08/21 11:10:18;;;;;;;3.30;1.40;;;;;;;27.48;50.53;97522.09;4426167;32;20105;-78
2022/08/21 11:12:53;;;;;;;2.75;1.45;;;;;;;27.55;50.16;97520.34;4412214;32;20108;-78
2022/08/21 11:15:36;;;;;;;1.83;1.20;;;;;;;27.61;49.55;97522.22;4425686;32;20102;-78
2022/08/21 11:18:17;;;;;;;2.05;1.30;;;;;;;26.67;52.48;97518.44;4412434;32;20105;-78
2022/08/21 11:21:04;;;;;;;3.35;1.52;;;;;;;27.54;49.76;97528.44;4437379;32;20152;-78
2022/08/21 11:23:39;;;;;;;1.98;1.40;;;;;;;27.59;50.64;97518.94;4425843;32;20114;-78
2022/08/21 11:26:12;;;;;;;4.35;1.50;;;;;;;27.22;51.56;97516.44;4426015;32;20164;-78
2022/08/21 11:28:52;;;;;;;2.55;1.48;;;;;;;27.16;51.44;97519.81;4436592;32;20090;-78
2022/08/21 11:31:31;;;;;;;2.95;1.37;;;;;;;27.57;51.36;97514.84;4417799;32;20399;-78
2022/08/21 11:34:21;;;;;;;3.33;1.30;;;;;;;27.08;51.23;97518.91;4425750;32;20160;-78
2022/08/21 11:37:01;;;;;;;2.90;1.30;;;;;;;26.94;51.26;97513.56;4425542;32;20140;-78
2022/08/21 11:40:01;;;;;;;2.00;1.42;;;;;;;26.94;51.61;97516.22;4426008;32;20101;-78
2022/08/21 11:42:30;;;;;;;2.05;1.25;;;;;;;27.94;49.57;97522.63;4425421;32;20093;-78
2022/08/21 11:45:47;;;;;;;2.37;1.50;;;;;;;27.33;50.48;97529.22;4411853;32;20181;-78
2022/08/21 11:48:46;;;;;;;2.58;1.17;;;;;;;27.32;50.20;97522.25;4391968;32;20102;-78
2022/08/21 11:51:22;;;;;;;2.92;1.50;;;;;;;27.69;48.88;97528.47;4411804;32;20733;-78
2022/08/21 11:54:03;;;;;;;2.22;1.50;;;;;;;27.41;49.30;97523.00;4411943;32;20085;-78
2022/08/21 11:56:38;;;;;;;2.00;1.40;;;;;;;27.07;50.67;97517.25;4411949;32;20122;-78
2022/08/21 11:59:10;;;;;;;3.17;1.80;;;;;;;27.68;48.95;97525.00;4425888;32;20141;-78
2022/08/21 12:01:42;;;;;;;2.30;1.40;;;;;;;27.40;49.38;97530.13;4437337;32;20113;-78